Time;durP1;ratioP1;P1;durP2;ratioP2;P2;SDS_P1;SDS_P2;PMS_P1;PMS_P2;Temp;Humidity;BMP_temperature;BMP_pressure;BME280_temperature;BME280_humidity;BME280_pressure;Samples;Min_cycle;Max_cycle;Signal;HPM_P1;HPM_P2
2021/11/04 00:02:14;;;;;;;;;;;7.40;1.00;;;;;;5009973;28;20271;-73
2021/11/04 00:04:40;;;;;;;;;;;7.40;1.00;;;;;;5010382;28;19913;-72
2021/11/04 00:07:10;;;;;;;;;;;7.40;1.00;;;;;;5010979;28;19976;-73
2021/11/04 00:09:36;;;;;;;;;;;7.40;1.00;;;;;;5010599;28;19909;-73
2021/11/04 00:12:01;;;;;;;;;;;7.40;1.00;;;;;;5009651;28;19916;-73
2021/11/04 00:14:27;;;;;;;;;;;7.40;1.00;;;;;;5010584;28;20269;-73
2021/11/04 00:16:52;;;;;;;;;;;7.40;1.00;;;;;;5018505;28;20438;-73
2021/11/04 00:19:18;;;;;;;;;;;7.40;1.00;;;;;;5027974;28;19959;-75
2021/11/04 00:21:43;;;;;;;;;;;7.30;1.00;;;;;;5029881;28;19914;-73
2021/11/04 00:24:09;;;;;;;;;;;7.30;1.00;;;;;;5016551;28;19913;-73
2021/11/04 00:26:34;;;;;;;;;;;7.20;1.00;;;;;;5009257;28;19914;-74
2021/11/04 00:29:00;;;;;;;;;;;7.20;1.00;;;;;;5010820;28;19917;-74
2021/11/04 00:31:26;;;;;;;;;;;7.20;1.00;;;;;;5010011;28;20291;-74
2021/11/04 00:33:52;;;;;;;;;;;7.20;1.00;;;;;;5010084;28;20024;-73
2021/11/04 00:36:18;;;;;;;;;;;7.10;1.00;;;;;;5009986;28;19917;-73
2021/11/04 00:38:46;;;;;;;;;;;7.10;1.00;;;;;;4992142;28;19914;-73
2021/11/04 00:41:12;;;;;;;;;;;7.10;1.00;;;;;;5009020;28;19914;-73
2021/11/04 00:43:38;;;;;;;;;;;7.10;1.00;;;;;;5010194;28;19914;-73
2021/11/04 00:46:03;;;;;;;;;;;7.10;1.00;;;;;;5010079;28;19999;-73
2021/11/04 00:48:29;;;;;;;;;;;7.10;1.00;;;;;;5010728;28;20007;-74
2021/11/04 00:50:54;;;;;;;;;;;7.10;1.00;;;;;;5030220;22;20075;-74
2021/11/04 00:53:20;;;;;;;;;;;7.10;1.00;;;;;;4991245;28;19910;-75
2021/11/04 00:55:45;;;;;;;;;;;7.10;1.00;;;;;;4990363;28;19921;-75
2021/11/04 00:58:11;;;;;;;;;;;7.10;1.00;;;;;;4974760;28;19936;-74
2021/11/04 01:00:36;;;;;;;;;;;7.10;1.00;;;;;;4991554;28;20014;-74
2021/11/04 01:03:02;;;;;;;;;;;7.10;1.00;;;;;;4974343;28;19933;-75
2021/11/04 01:05:27;;;;;;;;;;;7.10;1.00;;;;;;4991502;28;19987;-74
2021/11/04 01:07:53;;;;;;;;;;;7.10;1.00;;;;;;4993017;28;20317;-74
2021/11/04 01:10:19;;;;;;;;;;;7.10;1.00;;;;;;4992682;28;19949;-74
2021/11/04 01:12:46;;;;;;;;;;;7.10;1.00;;;;;;4991777;28;20498;-74
2021/11/04 01:15:11;;;;;;;;;;;7.10;1.00;;;;;;4992487;28;19982;-74
2021/11/04 01:17:37;;;;;;;;;;;7.10;1.00;;;;;;4992693;28;19918;-74
2021/11/04 01:20:03;;;;;;;;;;;7.10;1.00;;;;;;4975031;28;20435;-74
2021/11/04 01:22:29;;;;;;;;;;;7.10;1.00;;;;;;4992566;28;20012;-74
2021/11/04 01:24:54;;;;;;;;;;;7.10;1.00;;;;;;4984039;28;20004;-74
2021/11/04 01:27:20;;;;;;;;;;;7.10;1.00;;;;;;4992660;28;19922;-76
2021/11/04 01:29:45;;;;;;;;;;;7.20;1.00;;;;;;4992669;28;19909;-74
2021/11/04 01:32:11;;;;;;;;;;;7.20;1.00;;;;;;4991712;28;20013;-74
2021/11/04 01:34:36;;;;;;;;;;;7.20;1.00;;;;;;4991871;28;19938;-74
2021/11/04 01:37:02;;;;;;;;;;;7.10;1.00;;;;;;4991809;28;19913;-74
2021/11/04 01:39:27;;;;;;;;;;;7.10;1.00;;;;;;4993985;28;20741;-74
2021/11/04 01:41:53;;;;;;;;;;;7.10;1.00;;;;;;5002419;28;19981;-73
2021/11/04 01:44:18;;;;;;;;;;;7.10;1.00;;;;;;5012205;28;19968;-75
2021/11/04 01:46:44;;;;;;;;;;;7.10;1.00;;;;;;5010739;28;19925;-74
2021/11/04 01:49:10;;;;;;;;;;;7.10;1.00;;;;;;4993706;28;19920;-74
2021/11/04 01:51:36;;;;;;;;;;;7.10;1.00;;;;;;5011206;28;19925;-74
2021/11/04 01:54:01;;;;;;;;;;;7.10;1.00;;;;;;5014652;28;19916;-73
2021/11/04 01:56:27;;;;;;;;;;;7.10;1.00;;;;;;5015141;28;19988;-74
2021/11/04 01:58:52;;;;;;;;;;;7.20;1.00;;;;;;5016870;28;19988;-74
2021/11/04 02:01:18;;;;;;;;;;;7.20;1.00;;;;;;5015082;28;20008;-75
2021/11/04 02:04:07;;;;;;;;;;;7.20;1.00;;;;;;5016310;28;19916;-74
2021/11/04 02:06:38;;;;;;;;;;;7.20;1.00;;;;;;5016341;28;19913;-74
2021/11/04 02:09:09;;;;;;;;;;;7.20;1.00;;;;;;5017479;28;19909;-74
2021/11/04 02:11:37;;;;;;;;;;;7.20;1.00;;;;;;5016172;28;19917;-74
2021/11/04 02:14:07;;;;;;;;;;;7.10;1.00;;;;;;5016396;28;19976;-75
2021/11/04 02:16:32;;;;;;;;;;;7.10;1.00;;;;;;5016037;28;19916;-74
2021/11/04 02:19:07;;;;;;;;;;;7.20;1.00;;;;;;5016644;28;19913;-75
2021/11/04 02:21:39;;;;;;;;;;;7.20;1.00;;;;;;5015341;28;20243;-74
2021/11/04 02:24:19;;;;;;;;;;;7.20;1.00;;;;;;5002533;28;19944;-74
2021/11/04 02:26:47;;;;;;;;;;;7.10;1.00;;;;;;4995681;28;19921;-75
2021/11/04 02:29:13;;;;;;;;;;;7.10;1.00;;;;;;4996464;28;19917;-75
2021/11/04 02:31:39;;;;;;;;;;;7.10;1.00;;;;;;4995181;28;19914;-75
2021/11/04 02:34:04;;;;;;;;;;;7.10;1.00;;;;;;4977807;28;19917;-74
2021/11/04 02:36:30;;;;;;;;;;;7.10;1.00;;;;;;4993399;28;20017;-74
2021/11/04 02:38:56;;;;;;;;;;;7.20;1.00;;;;;;5000110;28;19936;-74
2021/11/04 02:41:22;;;;;;;;;;;7.10;1.00;;;;;;5014235;28;19996;-74
2021/11/04 02:43:48;;;;;;;;;;;7.10;1.00;;;;;;5014748;28;19921;-74
2021/11/04 02:46:14;;;;;;;;;;;7.20;1.00;;;;;;4996842;28;19910;-75
2021/11/04 02:48:41;;;;;;;;;;;7.20;1.00;;;;;;5015661;28;19928;-75
2021/11/04 02:51:06;;;;;;;;;;;7.20;1.00;;;;;;5014534;28;19923;-75
2021/11/04 02:53:32;;;;;;;;;;;7.20;1.00;;;;;;5014074;28;19910;-74
2021/11/04 02:55:57;;;;;;;;;;;7.20;1.00;;;;;;5013707;28;20313;-74
2021/11/04 02:58:24;;;;;;;;;;;7.20;1.00;;;;;;5014972;28;19920;-74
2021/11/04 03:00:51;;;;;;;;;;;7.20;1.00;;;;;;5013855;28;20263;-74
2021/11/04 03:03:17;;;;;;;;;;;7.20;1.00;;;;;;5014020;28;20315;-75
2021/11/04 03:05:43;;;;;;;;;;;7.20;1.00;;;;;;5013353;28;19920;-74
2021/11/04 03:08:09;;;;;;;;;;;7.20;1.00;;;;;;4997145;28;20057;-74
2021/11/04 03:10:34;;;;;;;;;;;7.20;1.00;;;;;;5013621;28;19972;-73
2021/11/04 03:13:00;;;;;;;;;;;7.20;1.00;;;;;;5014196;28;19909;-74
2021/11/04 03:15:28;;;;;;;;;;;7.20;1.00;;;;;;5007788;28;20325;-74
2021/11/04 03:17:54;;;;;;;;;;;7.20;1.00;;;;;;5006761;28;20393;-74
2021/11/04 03:20:20;;;;;;;;;;;7.30;1.00;;;;;;5014638;28;19909;-75
2021/11/04 03:22:46;;;;;;;;;;;7.20;1.00;;;;;;4993695;28;19956;-75
2021/11/04 03:25:17;;;;;;;;;;;7.20;1.00;;;;;;4994281;28;19937;-74
2021/11/04 03:27:44;;;;;;;;;;;7.20;1.00;;;;;;4992391;28;19918;-75
2021/11/04 03:30:10;;;;;;;;;;;7.20;1.00;;;;;;5002013;28;19929;-74
2021/11/04 03:32:37;;;;;;;;;;;7.30;1.00;;;;;;4994287;28;20248;-74
2021/11/04 03:35:03;;;;;;;;;;;7.20;1.00;;;;;;4975804;28;20013;-74
2021/11/04 03:37:29;;;;;;;;;;;7.20;1.00;;;;;;4999087;28;19951;-74
2021/11/04 03:39:55;;;;;;;;;;;7.20;1.00;;;;;;5013449;28;19960;-74
2021/11/04 03:42:22;;;;;;;;;;;7.20;1.00;;;;;;5013053;28;19913;-73
2021/11/04 03:44:48;;;;;;;;;;;7.20;1.00;;;;;;5014197;28;19916;-74
2021/11/04 03:47:16;;;;;;;;;;;7.20;1.00;;;;;;5013444;28;20353;-74
2021/11/04 03:49:42;;;;;;;;;;;7.20;1.00;;;;;;5013223;28;19916;-74
2021/11/04 03:52:08;;;;;;;;;;;7.20;1.00;;;;;;5013027;28;19929;-74
2021/11/04 03:54:34;;;;;;;;;;;7.20;1.00;;;;;;4995633;28;20343;-74
2021/11/04 03:56:59;;;;;;;;;;;7.20;1.00;;;;;;5012409;28;19996;-74
2021/11/04 03:59:25;;;;;;;;;;;7.20;1.00;;;;;;4995809;28;19914;-74
2021/11/04 04:01:51;;;;;;;;;;;7.20;1.00;;;;;;5011849;28;19913;-73
2021/11/04 04:04:17;;;;;;;;;;;7.10;1.00;;;;;;5013466;28;19918;-74
2021/11/04 04:06:42;;;;;;;;;;;7.20;1.00;;;;;;5012255;28;20385;-74
2021/11/04 04:09:09;;;;;;;;;;;7.10;1.00;;;;;;5013610;28;20325;-74
2021/11/04 04:11:34;;;;;;;;;;;7.10;1.00;;;;;;5012378;28;19920;-74
2021/11/04 04:14:00;;;;;;;;;;;7.10;1.00;;;;;;5012692;28;20350;-74
2021/11/04 04:16:25;;;;;;;;;;;7.10;1.00;;;;;;5011933;28;20315;-75
2021/11/04 04:18:51;;;;;;;;;;;7.00;1.00;;;;;;5011947;28;19909;-75
2021/11/04 04:21:17;;;;;;;;;;;7.00;1.00;;;;;;5010706;28;19916;-75
2021/11/04 04:23:43;;;;;;;;;;;7.00;1.00;;;;;;5011135;28;19922;-75
2021/11/04 04:26:08;;;;;;;;;;;7.10;1.00;;;;;;4990584;28;19910;-77
2021/11/04 04:28:35;;;;;;;;;;;7.00;1.00;;;;;;4992039;28;19910;-75
2021/11/04 04:31:00;;;;;;;;;;;7.10;1.00;;;;;;4991092;28;19909;-75
2021/11/04 04:33:26;;;;;;;;;;;7.10;1.00;;;;;;4991598;28;19968;-75
2021/11/04 04:35:51;;;;;;;;;;;7.00;1.00;;;;;;4992710;28;19990;-76
2021/11/04 04:38:18;;;;;;;;;;;7.00;1.00;;;;;;4992675;28;19918;-75
2021/11/04 04:40:43;;;;;;;;;;;7.00;1.00;;;;;;4981168;28;20319;-76
2021/11/04 04:43:09;;;;;;;;;;;7.00;1.00;;;;;;4995179;28;19918;-75
2021/11/04 04:45:34;;;;;;;;;;;7.00;1.00;;;;;;4991595;28;19933;-75
2021/11/04 04:48:00;;;;;;;;;;;7.00;1.00;;;;;;4992701;28;20335;-74
2021/11/04 04:50:25;;;;;;;;;;;7.00;1.00;;;;;;4993405;28;19921;-74
2021/11/04 04:52:51;;;;;;;;;;;7.00;1.00;;;;;;4994361;28;19914;-75
2021/11/04 04:55:17;;;;;;;;;;;6.90;1.00;;;;;;4976296;28;19980;-75
2021/11/04 04:57:42;;;;;;;;;;;6.80;1.00;;;;;;4994502;28;19917;-75
2021/11/04 05:00:12;;;;;;;;;;;6.80;1.00;;;;;;4994019;28;19999;-75
2021/11/04 05:02:40;;;;;;;;;;;6.80;1.00;;;;;;4993335;28;19980;-75
2021/11/04 05:05:07;;;;;;;;;;;6.70;1.00;;;;;;4993378;28;20021;-75
2021/11/04 05:07:32;;;;;;;;;;;6.60;1.00;;;;;;4992683;28;19914;-75
2021/11/04 05:09:58;;;;;;;;;;;6.60;1.00;;;;;;4991227;28;20290;-75
2021/11/04 05:12:23;;;;;;;;;;;6.60;1.00;;;;;;4990051;28;19933;-76
2021/11/04 05:14:49;;;;;;;;;;;6.50;99.90;;;;;;4991173;28;19964;-75
2021/11/04 05:17:14;;;;;;;;;;;6.50;99.90;;;;;;4991240;28;19945;-75
2021/11/04 05:19:39;;;;;;;;;;;6.50;1.00;;;;;;4990282;28;19920;-74
2021/11/04 05:22:05;;;;;;;;;;;6.50;1.00;;;;;;4990643;28;19920;-74
2021/11/04 05:24:34;;;;;;;;;;;6.50;1.00;;;;;;5000892;28;19926;-75
2021/11/04 05:27:03;;;;;;;;;;;6.50;1.00;;;;;;4990687;28;19928;-75
2021/11/04 05:29:30;;;;;;;;;;;6.50;1.00;;;;;;4991333;28;19918;-75
2021/11/04 05:31:56;;;;;;;;;;;6.50;1.00;;;;;;4967302;28;19965;-75
2021/11/04 05:34:22;;;;;;;;;;;6.50;1.00;;;;;;4990135;28;19922;-75
2021/11/04 05:36:47;;;;;;;;;;;6.40;1.00;;;;;;4987382;28;20371;-75
2021/11/04 05:39:12;;;;;;;;;;;6.40;1.00;;;;;;4996407;28;20353;-75
2021/11/04 05:41:38;;;;;;;;;;;6.50;1.00;;;;;;5008447;28;19909;-75
2021/11/04 05:44:04;;;;;;;;;;;6.50;1.00;;;;;;5009479;28;20240;-75
2021/11/04 05:46:29;;;;;;;;;;;6.40;1.00;;;;;;5008801;28;19936;-75
2021/11/04 05:48:55;;;;;;;;;;;6.40;1.00;;;;;;5010735;28;20000;-74
2021/11/04 05:51:20;;;;;;;;;;;6.30;1.00;;;;;;5009343;28;19925;-75
2021/11/04 05:53:46;;;;;;;;;;;6.30;1.00;;;;;;5009338;28;19910;-75
2021/11/04 05:56:11;;;;;;;;;;;6.30;1.00;;;;;;5009033;28;20389;-75
2021/11/04 05:58:37;;;;;;;;;;;6.30;1.00;;;;;;5009824;28;19909;-75
2021/11/04 06:01:03;;;;;;;;;;;6.30;1.00;;;;;;5009392;28;19980;-75
2021/11/04 06:03:28;;;;;;;;;;;6.20;1.00;;;;;;5010116;28;19936;-76
2021/11/04 06:05:54;;;;;;;;;;;6.20;1.00;;;;;;5010084;28;20008;-74
2021/11/04 06:08:19;;;;;;;;;;;6.10;1.00;;;;;;5011162;28;19920;-75
2021/11/04 06:10:45;;;;;;;;;;;6.10;1.00;;;;;;5009359;28;20269;-74
2021/11/04 06:13:10;;;;;;;;;;;6.10;1.00;;;;;;5011330;28;19910;-77
2021/11/04 06:15:36;;;;;;;;;;;6.10;1.00;;;;;;4994199;28;19919;-76
2021/11/04 06:18:01;;;;;;;;;;;6.10;1.00;;;;;;4998702;28;19949;-74
2021/11/04 06:20:27;;;;;;;;;;;6.10;1.00;;;;;;4990616;28;19918;-75
2021/11/04 06:22:52;;;;;;;;;;;6.20;1.00;;;;;;4994264;28;19917;-74
2021/11/04 06:25:18;;;;;;;;;;;6.20;1.00;;;;;;4992662;28;19914;-75
2021/11/04 06:27:43;;;;;;;;;;;6.20;1.00;;;;;;4990952;28;19918;-74
2021/11/04 06:30:10;;;;;;;;;;;6.20;1.00;;;;;;4990776;28;19913;-73
2021/11/04 06:32:35;;;;;;;;;;;6.20;1.00;;;;;;4989542;28;19921;-73
2021/11/04 06:35:04;;;;;;;;;;;6.20;1.00;;;;;;4973168;28;19913;-74
2021/11/04 06:37:30;;;;;;;;;;;6.20;1.00;;;;;;4997450;28;19910;-74
2021/11/04 06:39:55;;;;;;;;;;;6.20;1.00;;;;;;4992309;28;20079;-74
2021/11/04 06:42:21;;;;;;;;;;;6.30;1.00;;;;;;4990959;28;19948;-75
2021/11/04 06:44:47;;;;;;;;;;;6.30;1.00;;;;;;4991911;28;20429;-75
2021/11/04 06:47:31;;;;;;;;;;;6.30;1.00;;;;;;4990950;28;20072;-75
2021/11/04 06:49:57;;;;;;;;;;;6.30;1.00;;;;;;4975193;28;20692;-75
2021/11/04 06:52:24;;;;;;;;;;;6.30;1.00;;;;;;5030832;23;20008;-74
2021/11/04 06:54:50;;;;;;;;;;;6.40;1.00;;;;;;5028856;28;19913;-74
2021/11/04 06:57:17;;;;;;;;;;;6.40;1.00;;;;;;5028728;28;20301;-73
2021/11/04 06:59:46;;;;;;;;;;;6.50;1.00;;;;;;5029484;28;20229;-70
2021/11/04 07:02:15;;;;;;;;;;;6.50;1.00;;;;;;5027813;28;19909;-73
2021/11/04 07:04:42;;;;;;;;;;;6.50;1.00;;;;;;5028542;28;19909;-70
2021/11/04 07:09:34;;;;;;;;;;;6.60;1.00;;;;;;5029103;28;20539;-74
2021/11/04 07:12:00;;;;;;;;;;;6.60;1.00;;;;;;5028209;28;19941;-72
2021/11/04 07:14:27;;;;;;;;;;;6.70;1.00;;;;;;5029195;28;19952;-73
2021/11/04 07:16:53;;;;;;;;;;;6.70;1.00;;;;;;5024241;28;19935;-73
2021/11/04 07:19:20;;;;;;;;;;;6.80;1.00;;;;;;5027979;28;19917;-72
2021/11/04 07:21:54;;;;;;;;;;;6.80;1.00;;;;;;5026524;28;19920;-69
2021/11/04 07:24:26;;;;;;;;;;;6.90;1.00;;;;;;5027724;28;19940;-71
2021/11/04 07:26:54;;;;;;;;;;;6.90;1.00;;;;;;5027232;28;19939;-70
2021/11/04 07:29:24;;;;;;;;;;;6.90;1.00;;;;;;5027821;28;19920;-70
2021/11/04 07:31:51;;;;;;;;;;;6.90;1.00;;;;;;5026333;28;19917;-73
2021/11/04 07:34:18;;;;;;;;;;;7.00;1.00;;;;;;5028009;28;19955;-70
2021/11/04 07:36:44;;;;;;;;;;;7.00;1.00;;;;;;5029974;28;19949;-73
2021/11/04 07:39:13;;;;;;;;;;;7.10;1.00;;;;;;5016670;28;19952;-73
2021/11/04 07:41:38;;;;;;;;;;;7.10;1.00;;;;;;5029524;28;20366;-71
2021/11/04 07:44:04;;;;;;;;;;;7.10;1.00;;;;;;5030536;28;19945;-73
2021/11/04 07:46:29;;;;;;;;;;;7.20;99.90;;;;;;5030539;28;20288;-73
2021/11/04 07:48:55;;;;;;;;;;;7.20;99.90;;;;;;5031316;28;20398;-72
2021/11/04 07:51:22;;;;;;;;;;;7.20;99.90;;;;;;5044135;28;19913;-73
2021/11/04 07:53:47;;;;;;;;;;;7.30;1.00;;;;;;5030391;28;19951;-72
2021/11/04 07:56:13;;;;;;;;;;;7.40;99.90;;;;;;5029761;28;19952;-72
2021/11/04 07:58:39;;;;;;;;;;;7.40;99.90;;;;;;5030618;28;20352;-72
2021/11/04 08:01:04;;;;;;;;;;;7.40;99.90;;;;;;5029518;28;19913;-73
2021/11/04 08:03:30;;;;;;;;;;;7.50;99.90;;;;;;5029870;28;19967;-72
2021/11/04 08:05:55;;;;;;;;;;;7.60;99.90;;;;;;5030390;28;20223;-73
2021/11/04 08:08:21;;;;;;;;;;;7.70;99.90;;;;;;5030907;28;20000;-70
2021/11/04 08:10:46;;;;;;;;;;;7.80;99.90;;;;;;5029047;28;19909;-73
2021/11/04 08:13:15;;;;;;;;;;;7.90;65.80;;;;;;5029154;28;20015;-72
2021/11/04 08:15:41;;;;;;;;;;;8.00;1.00;;;;;;5028982;28;19920;-74
2021/11/04 08:18:07;;;;;;;;;;;8.20;1.00;;;;;;5030465;28;20338;-74
2021/11/04 08:20:32;;;;;;;;;;;8.40;99.90;;;;;;5029666;28;19917;-74
2021/11/04 08:22:58;;;;;;;;;;;8.60;1.00;;;;;;5029684;28;19913;-74
2021/11/04 08:25:24;;;;;;;;;;;8.90;1.00;;;;;;5029085;28;19995;-71
2021/11/04 08:27:50;;;;;;;;;;;9.20;99.90;;;;;;5029459;28;20012;-73
2021/11/04 08:30:16;;;;;;;;;;;9.40;99.90;;;;;;5029841;28;19929;-71
2021/11/04 08:32:42;;;;;;;;;;;9.50;1.00;;;;;;5029016;28;19909;-73
2021/11/04 08:35:08;;;;;;;;;;;9.50;99.90;;;;;;5029167;28;20370;-73
2021/11/04 08:37:34;;;;;;;;;;;9.30;99.90;;;;;;5029640;28;19932;-72
2021/11/04 08:39:59;;;;;;;;;;;8.90;99.90;;;;;;5016881;28;19959;-72
2021/11/04 08:42:25;;;;;;;;;;;8.80;99.90;;;;;;5009062;28;19910;-74
2021/11/04 08:44:51;;;;;;;;;;;8.70;1.00;;;;;;5010599;28;20000;-74
2021/11/04 08:47:17;;;;;;;;;;;8.50;1.00;;;;;;5009537;28;20263;-74
2021/11/04 08:49:42;;;;;;;;;;;8.40;97.30;;;;;;5009365;28;20004;-74
2021/11/04 08:52:08;;;;;;;;;;;8.30;1.00;;;;;;5009177;28;19924;-70
2021/11/04 08:54:34;;;;;;;;;;;8.30;99.90;;;;;;5009539;28;19909;-71
2021/11/04 08:57:00;;;;;;;;;;;8.20;1.00;;;;;;5009139;28;19933;-72
2021/11/04 08:59:26;;;;;;;;;;;8.20;1.00;;;;;;5010026;28;20251;-75
2021/11/04 09:01:51;;;;;;;;;;;8.30;1.00;;;;;;5008388;28;19909;-75
2021/11/04 09:04:17;;;;;;;;;;;8.20;95.40;;;;;;5010212;28;19909;-75
2021/11/04 09:06:43;;;;;;;;;;;8.30;1.00;;;;;;5009034;28;20027;-75
2021/11/04 09:09:08;;;;;;;;;;;8.30;1.00;;;;;;5010378;28;20004;-72
2021/11/04 09:11:34;;;;;;;;;;;8.40;1.00;;;;;;5008719;28;20373;-74
2021/11/04 09:13:59;;;;;;;;;;;8.50;1.00;;;;;;5009605;28;19972;-73
2021/11/04 09:16:25;;;;;;;;;;;8.60;99.90;;;;;;5023217;28;20383;-73
2021/11/04 09:18:51;;;;;;;;;;;8.70;1.00;;;;;;5029278;28;19909;-73
2021/11/04 09:21:17;;;;;;;;;;;8.70;1.00;;;;;;5028849;28;20008;-71
2021/11/04 09:23:42;;;;;;;;;;;8.80;99.90;;;;;;5028885;28;19910;-72
2021/11/04 09:26:08;;;;;;;;;;;8.80;99.90;;;;;;5010364;28;19909;-72
2021/11/04 09:28:33;;;;;;;;;;;8.90;1.00;;;;;;5029460;28;20010;-74
2021/11/04 09:30:59;;;;;;;;;;;9.10;1.00;;;;;;5028973;28;19913;-72
2021/11/04 09:33:24;;;;;;;;;;;9.10;53.60;;;;;;5028564;28;19913;-73
2021/11/04 09:35:50;;;;;;;;;;;9.10;99.90;;;;;;5027698;28;19987;-73
2021/11/04 09:38:16;;;;;;;;;;;9.20;99.90;;;;;;5028784;28;20320;-72
2021/11/04 09:40:41;;;;;;;;;;;9.30;99.90;;;;;;5009519;28;20432;-71
2021/11/04 09:43:07;;;;;;;;;;;9.30;12.00;;;;;;5009129;28;20357;-71
2021/11/04 09:45:33;;;;;;;;;;;9.30;99.90;;;;;;5008919;28;19925;-73
2021/11/04 09:47:58;;;;;;;;;;;9.30;1.00;;;;;;5009499;28;20012;-72
2021/11/04 09:50:24;;;;;;;;;;;9.30;1.00;;;;;;5009269;28;19909;-73
2021/11/04 09:52:54;;;;;;;;;;;9.30;1.00;;;;;;5008592;28;19933;-73
2021/11/04 09:55:21;;;;;;;;;;;9.30;1.00;;;;;;5010902;28;19917;-73
2021/11/04 09:57:47;;;;;;;;;;;9.30;1.00;;;;;;5012750;28;19963;-74
2021/11/04 10:00:14;;;;;;;;;;;9.20;1.00;;;;;;5012400;28;19985;-73
2021/11/04 10:02:44;;;;;;;;;;;9.20;1.00;;;;;;5011298;28;20290;-73
2021/11/04 10:05:14;;;;;;;;;;;9.10;1.00;;;;;;5011064;28;19984;-74
2021/11/04 10:07:47;;;;;;;;;;;9.10;1.00;;;;;;5012995;28;19928;-73
2021/11/04 10:10:14;;;;;;;;;;;9.10;1.00;;;;;;5011004;28;20327;-73
2021/11/04 10:12:58;;;;;;;;;;;9.30;1.00;;;;;;5008071;28;20343;-72
2021/11/04 10:15:24;;;;;;;;;;;9.40;1.00;;;;;;5011815;28;20444;-73
2021/11/04 10:17:49;;;;;;;;;;;9.60;1.00;;;;;;5012578;28;19913;-73
2021/11/04 10:20:22;;;;;;;;;;;9.50;99.90;;;;;;5011705;28;19953;-72
2021/11/04 10:22:58;;;;;;;;;;;9.40;99.90;;;;;;5014847;28;19917;-74
2021/11/04 10:25:24;;;;;;;;;;;9.40;99.90;;;;;;5032045;28;19913;-72
2021/11/04 10:27:50;;;;;;;;;;;9.20;99.90;;;;;;5032177;28;19921;-74
2021/11/04 10:30:41;;;;;;;;;;;9.20;99.90;;;;;;5031935;28;20251;-73
2021/11/04 10:33:21;;;;;;;;;;;9.20;99.90;;;;;;5028734;28;19913;-73
2021/11/04 10:35:58;;;;;;;;;;;9.00;99.90;;;;;;5031509;28;19909;-73
2021/11/04 10:38:30;;;;;;;;;;;9.00;1.00;;;;;;5031947;28;19909;-73
2021/11/04 10:40:56;;;;;;;;;;;8.90;1.00;;;;;;5024900;28;19919;-73
2021/11/04 10:43:22;;;;;;;;;;;8.70;1.00;;;;;;5031468;28;20316;-74
2021/11/04 10:45:56;;;;;;;;;;;8.70;99.90;;;;;;5031572;28;19917;-72
2021/11/04 10:48:22;;;;;;;;;;;8.70;99.90;;;;;;5031681;28;19913;-74
2021/11/04 10:50:48;;;;;;;;;;;8.60;1.00;;;;;;5031256;28;19979;-73
2021/11/04 10:53:20;;;;;;;;;;;8.50;93.70;;;;;;5031729;28;19917;-74
2021/11/04 10:55:47;;;;;;;;;;;8.40;99.90;;;;;;5030371;28;20000;-72
2021/11/04 10:58:26;;;;;;;;;;;8.40;99.90;;;;;;5031865;28;19928;-75
2021/11/04 11:00:51;;;;;;;;;;;8.30;99.90;;;;;;5031047;28;20004;-73
2021/11/04 11:03:17;;;;;;;;;;;8.30;1.00;;;;;;5030868;28;20039;-74
2021/11/04 11:05:43;;;;;;;;;;;8.20;1.00;;;;;;5031663;28;20027;-74
2021/11/04 11:08:09;;;;;;;;;;;8.10;1.00;;;;;;5031546;28;19982;-72
2021/11/04 11:10:36;;;;;;;;;;;8.10;55.30;;;;;;5030349;28;19913;-73
2021/11/04 11:13:03;;;;;;;;;;;8.20;30.40;;;;;;5031213;28;19909;-72
2021/11/04 11:15:29;;;;;;;;;;;8.30;97.00;;;;;;5030918;28;19917;-72
2021/11/04 11:17:55;;;;;;;;;;;8.40;99.90;;;;;;5031557;28;19980;-74
2021/11/04 11:20:21;;;;;;;;;;;8.40;99.90;;;;;;5030891;28;19924;-73
2021/11/04 11:22:46;;;;;;;;;;;8.40;1.00;;;;;;5029795;28;19932;-72
2021/11/04 11:25:12;;;;;;;;;;;8.50;1.00;;;;;;5029521;28;19913;-72
2021/11/04 11:27:37;;;;;;;;;;;8.50;1.00;;;;;;5030712;28;20352;-74
2021/11/04 11:30:13;;;;;;;;;;;8.50;1.00;;;;;;5031199;28;19913;-74
2021/11/04 11:32:39;;;;;;;;;;;8.50;1.00;;;;;;5030932;28;19939;-74
2021/11/04 11:35:17;;;;;;;;;;;8.60;1.00;;;;;;5030607;28;19913;-75
2021/11/04 11:37:54;;;;;;;;;;;8.70;99.90;;;;;;5031089;28;19913;-73
2021/11/04 11:40:21;;;;;;;;;;;8.80;1.00;;;;;;5015040;28;19914;-75
2021/11/04 11:43:00;;;;;;;;;;;8.80;1.00;;;;;;5009205;28;19910;-73
2021/11/04 11:45:27;;;;;;;;;;;8.80;1.00;;;;;;5010949;28;20370;-74
2021/11/04 11:47:52;;;;;;;;;;;8.90;1.00;;;;;;5010444;28;19914;-73
2021/11/04 11:50:21;;;;;;;;;;;8.90;99.90;;;;;;5010315;28;19914;-75
2021/11/04 11:52:48;;;;;;;;;;;8.90;99.90;;;;;;5009943;28;19918;-74
2021/11/04 11:55:16;;;;;;;;;;;9.00;99.90;;;;;;5010327;28;19959;-74
2021/11/04 11:58:00;;;;;;;;;;;9.00;99.90;;;;;;5010620;28;19959;-73
2021/11/04 12:00:44;;;;;;;;;;;9.00;31.90;;;;;;5010668;28;19921;-74
2021/11/04 12:03:10;;;;;;;;;;;9.00;54.40;;;;;;5009882;28;19963;-73
2021/11/04 12:05:36;;;;;;;;;;;9.00;99.90;;;;;;5010300;28;20351;-73
2021/11/04 12:08:10;;;;;;;;;;;9.00;1.00;;;;;;5010614;28;19932;-72
2021/11/04 12:10:36;;;;;;;;;;;8.90;1.00;;;;;;5009401;28;20258;-72
2021/11/04 12:13:02;;;;;;;;;;;9.00;1.00;;;;;;5010156;28;20350;-75
2021/11/04 12:15:29;;;;;;;;;;;9.00;1.00;;;;;;5017556;28;19960;-73
2021/11/04 12:18:13;;;;;;;;;;;9.00;1.00;;;;;;5030129;28;19983;-75
2021/11/04 12:20:54;;;;;;;;;;;9.10;1.00;;;;;;5030242;28;20745;-75
2021/11/04 12:23:20;;;;;;;;;;;9.20;1.00;;;;;;5028509;28;19915;-74
2021/11/04 12:25:46;;;;;;;;;;;9.30;1.00;;;;;;5028579;28;19932;-73
2021/11/04 12:28:12;;;;;;;;;;;9.40;1.00;;;;;;5026736;28;19917;-75
2021/11/04 12:30:38;;;;;;;;;;;9.30;1.00;;;;;;5029779;28;20071;-74
2021/11/04 12:33:05;;;;;;;;;;;9.20;99.90;;;;;;5027179;28;20088;-73
2021/11/04 12:35:43;;;;;;;;;;;9.20;99.90;;;;;;5028891;28;19914;-75
2021/11/04 12:38:08;;;;;;;;;;;9.20;99.90;;;;;;5029831;28;19996;-74
2021/11/04 12:40:34;;;;;;;;;;;9.20;99.90;;;;;;5029128;28;20267;-71
2021/11/04 12:43:09;;;;;;;;;;;9.10;99.90;;;;;;5028292;28;20417;-79
2021/11/04 12:45:36;;;;;;;;;;;9.00;99.90;;;;;;5029914;28;20019;-74
2021/11/04 12:48:02;;;;;;;;;;;9.00;99.90;;;;;;5029964;28;19920;-74
2021/11/04 12:50:28;;;;;;;;;;;9.00;99.90;;;;;;5029139;28;19909;-75
2021/11/04 12:53:00;;;;;;;;;;;9.00;1.00;;;;;;5027402;28;19921;-72
2021/11/04 12:55:26;;;;;;;;;;;9.00;1.00;;;;;;5028129;28;19948;-72
2021/11/04 12:57:57;;;;;;;;;;;9.00;1.00;;;;;;5029349;28;19956;-72
2021/11/04 13:00:22;;;;;;;;;;;8.90;99.90;;;;;;5029201;28;19983;-72
2021/11/04 13:02:48;;;;;;;;;;;8.80;99.90;;;;;;5028448;28;20521;-72
2021/11/04 13:05:15;;;;;;;;;;;8.70;99.90;;;;;;5028554;28;19912;-72
2021/11/04 13:07:42;;;;;;;;;;;8.70;1.00;;;;;;5029094;28;19913;-72
2021/11/04 13:10:19;;;;;;;;;;;8.70;1.00;;;;;;5028880;28;19951;-71
2021/11/04 13:13:00;;;;;;;;;;;8.80;1.00;;;;;;5028650;28;20370;-73
2021/11/04 13:15:27;;;;;;;;;;;8.70;99.90;;;;;;5028269;28;19982;-72
2021/11/04 13:17:54;;;;;;;;;;;8.70;1.00;;;;;;5029299;28;19975;-72
2021/11/04 13:20:32;;;;;;;;;;;8.70;1.00;;;;;;5028819;28;19909;-71
2021/11/04 13:23:11;;;;;;;;;;;8.70;1.00;;;;;;5028529;28;19916;-73
2021/11/04 13:25:42;;;;;;;;;;;8.70;1.00;;;;;;5027211;28;19909;-74
2021/11/04 13:28:09;;;;;;;;;;;8.80;1.00;;;;;;5028907;28;19944;-74
2021/11/04 13:30:36;;;;;;;;;;;8.90;1.00;;;;;;5028528;28;20357;-73
2021/11/04 13:33:02;;;;;;;;;;;8.90;99.90;;;;;;5010681;28;19919;-73
2021/11/04 13:35:39;;;;;;;;;;;9.00;99.90;;;;;;5028267;28;20012;-73
2021/11/04 13:38:07;;;;;;;;;;;9.10;99.90;;;;;;5029288;28;20413;-73
2021/11/04 13:40:44;;;;;;;;;;;9.10;99.90;;;;;;5028625;28;19909;-73
2021/11/04 13:43:10;;;;;;;;;;;9.20;99.90;;;;;;5028206;28;19916;-73
2021/11/04 13:45:35;;;;;;;;;;;9.30;99.90;;;;;;5021059;28;19918;-74
2021/11/04 13:48:01;;;;;;;;;;;9.30;99.90;;;;;;5017072;28;20397;-73
2021/11/04 13:50:45;;;;;;;;;;;9.40;99.90;;;;;;5022887;28;19909;-74
2021/11/04 13:53:15;;;;;;;;;;;9.50;99.90;;;;;;5019395;28;20020;-76
2021/11/04 13:55:41;;;;;;;;;;;9.60;99.90;;;;;;5021320;28;20086;-74
2021/11/04 13:58:06;;;;;;;;;;;9.70;99.90;;;;;;5021392;28;19956;-75
2021/11/04 14:00:32;;;;;;;;;;;9.70;28.10;;;;;;5021262;28;19909;-74
2021/11/04 14:03:13;;;;;;;;;;;9.60;42.20;;;;;;5021172;28;19921;-73
2021/11/04 14:06:08;;;;;;;;;;;9.60;29.60;;;;;;5021564;28;19918;-74
2021/11/04 14:08:38;;;;;;;;;;;9.60;15.30;;;;;;5009576;28;19913;-73
2021/11/04 14:11:12;;;;;;;;;;;9.40;1.00;;;;;;5031500;28;19920;-72
2021/11/04 14:13:53;;;;;;;;;;;9.30;1.00;;;;;;5031668;28;20124;-74
2021/11/04 14:16:23;;;;;;;;;;;9.30;1.00;;;;;;5028199;28;19936;-72
2021/11/04 14:18:48;;;;;;;;;;;9.40;1.00;;;;;;5032790;28;19917;-73
2021/11/04 14:21:14;;;;;;;;;;;9.50;1.00;;;;;;5031727;28;19916;-73
2021/11/04 14:23:39;;;;;;;;;;;9.60;1.00;;;;;;5031037;28;20005;-70
2021/11/04 14:26:05;;;;;;;;;;;9.60;1.00;;;;;;5031752;28;19913;-73
2021/11/04 14:28:30;;;;;;;;;;;9.50;1.00;;;;;;5031979;28;20121;-73
2021/11/04 14:30:56;;;;;;;;;;;9.50;1.00;;;;;;5031291;28;19909;-73
2021/11/04 14:33:21;;;;;;;;;;;9.40;1.00;;;;;;5031223;28;19995;-72
2021/11/04 14:35:47;;;;;;;;;;;9.30;1.00;;;;;;5030599;28;19924;-74
2021/11/04 14:38:13;;;;;;;;;;;9.10;1.00;;;;;;5031670;28;19909;-74
2021/11/04 14:40:38;;;;;;;;;;;9.10;1.00;;;;;;5012739;28;19926;-71
2021/11/04 14:43:03;;;;;;;;;;;9.00;1.00;;;;;;5011518;28;19910;-73
2021/11/04 14:45:29;;;;;;;;;;;9.00;1.00;;;;;;5011691;28;19913;-73